sensor_id;sensor_type;location;lat;lon;timestamp;pressure;altitude;pressure_sealevel;temperature;humidity
84413;BME280;74611;53.106;8.778;2023-12-29T00:00:33;100435.81;;;19.90;49.59
84413;BME280;74611;53.106;8.778;2023-12-29T00:02:58;100435.03;;;19.90;49.72
84413;BME280;74611;53.106;8.778;2023-12-29T00:05:23;100424.38;;;19.88;49.98
84413;BME280;74611;53.106;8.778;2023-12-29T00:07:49;100429.59;;;19.90;49.67
84413;BME280;74611;53.106;8.778;2023-12-29T00:10:14;100439.63;;;19.89;49.69
84413;BME280;74611;53.106;8.778;2023-12-29T00:12:40;100438.81;;;19.89;49.68
84413;BME280;74611;53.106;8.778;2023-12-29T00:15:05;100445.34;;;19.88;49.57
84413;BME280;74611;53.106;8.778;2023-12-29T00:17:31;100430.91;;;19.87;49.73
84413;BME280;74611;53.106;8.778;2023-12-29T00:19:57;100427.34;;;19.87;49.63
84413;BME280;74611;53.106;8.778;2023-12-29T00:22:22;100435.53;;;19.87;49.85
84413;BME280;74611;53.106;8.778;2023-12-29T00:24:50;100430.09;;;19.87;49.73
84413;BME280;74611;53.106;8.778;2023-12-29T00:27:15;100423.81;;;19.86;49.72
84413;BME280;74611;53.106;8.778;2023-12-29T00:29:41;100436.34;;;19.87;49.63
84413;BME280;74611;53.106;8.778;2023-12-29T00:32:07;100429.50;;;19.85;49.71
84413;BME280;74611;53.106;8.778;2023-12-29T00:34:33;100425.69;;;19.86;49.64
84413;BME280;74611;53.106;8.778;2023-12-29T00:36:59;100427.63;;;19.85;49.68
84413;BME280;74611;53.106;8.778;2023-12-29T00:39:24;100424.91;;;19.85;49.81
84413;BME280;74611;53.106;8.778;2023-12-29T00:41:55;100441.22;;;19.85;49.72
84413;BME280;74611;53.106;8.778;2023-12-29T00:44:22;100428.69;;;19.84;49.71
84413;BME280;74611;53.106;8.778;2023-12-29T00:46:47;100428.69;;;19.84;49.78
84413;BME280;74611;53.106;8.778;2023-12-29T00:49:12;100434.13;;;19.84;49.66
84413;BME280;74611;53.106;8.778;2023-12-29T00:51:41;100414.25;;;19.84;49.66
84413;BME280;74611;53.106;8.778;2023-12-29T00:54:07;100418.06;;;19.83;49.73
84413;BME280;74611;53.106;8.778;2023-12-29T00:56:32;100409.91;;;19.83;49.55
84413;BME280;74611;53.106;8.778;2023-12-29T00:58:58;100403.91;;;19.81;49.61
84413;BME280;74611;53.106;8.778;2023-12-29T01:01:23;100419.13;;;19.82;49.98
84413;BME280;74611;53.106;8.778;2023-12-29T01:03:49;100405.53;;;19.82;49.46
84413;BME280;74611;53.106;8.778;2023-12-29T01:06:14;100422.69;;;19.82;49.75
84413;BME280;74611;53.106;8.778;2023-12-29T01:08:40;100431.94;;;19.81;49.42
84413;BME280;74611;53.106;8.778;2023-12-29T01:11:05;100415.63;;;19.81;49.88
84413;BME280;74611;53.106;8.778;2023-12-29T01:13:31;100423.78;;;19.81;49.53
84413;BME280;74611;53.106;8.778;2023-12-29T01:15:56;100418.56;;;19.80;49.77
84413;BME280;74611;53.106;8.778;2023-12-29T01:18:22;100415.00;;;19.79;49.84
84413;BME280;74611;53.106;8.778;2023-12-29T01:20:47;100415.84;;;19.80;49.90
84413;BME280;74611;53.106;8.778;2023-12-29T01:23:13;100413.13;;;19.80;49.77
84413;BME280;74611;53.106;8.778;2023-12-29T01:25:38;100415.00;;;19.79;49.61
84413;BME280;74611;53.106;8.778;2023-12-29T01:28:05;100414.22;;;19.79;49.61
84413;BME280;74611;53.106;8.778;2023-12-29T01:30:30;100414.22;;;19.79;49.70
84413;BME280;74611;53.106;8.778;2023-12-29T01:32:56;100414.22;;;19.79;49.76
84413;BME280;74611;53.106;8.778;2023-12-29T01:35:21;100413.38;;;19.78;49.69
84413;BME280;74611;53.106;8.778;2023-12-29T01:37:46;100402.50;;;19.78;49.55
84413;BME280;74611;53.106;8.778;2023-12-29T01:40:12;100409.84;;;19.78;49.81
84413;BME280;74611;53.106;8.778;2023-12-29T01:42:37;100400.84;;;19.77;49.71
84413;BME280;74611;53.106;8.778;2023-12-29T01:45:03;100400.06;;;19.77;49.60
84413;BME280;74611;53.106;8.778;2023-12-29T01:47:30;100391.88;;;19.77;49.86
84413;BME280;74611;53.106;8.778;2023-12-29T01:49:56;100393.78;;;19.76;49.58
84413;BME280;74611;53.106;8.778;2023-12-29T01:52:22;100404.66;;;19.76;49.58
84413;BME280;74611;53.106;8.778;2023-12-29T01:54:49;100385.63;;;19.76;49.52
84413;BME280;74611;53.106;8.778;2023-12-29T01:57:16;100392.94;;;19.76;49.64
84413;BME280;74611;53.106;8.778;2023-12-29T01:59:42;100403.84;;;19.76;49.93
84413;BME280;74611;53.106;8.778;2023-12-29T02:02:08;100414.72;;;19.76;49.74
84413;BME280;74611;53.106;8.778;2023-12-29T02:04:34;100383.16;;;19.75;49.56
84413;BME280;74611;53.106;8.778;2023-12-29T02:07:02;100376.91;;;19.74;49.76
84413;BME280;74611;53.106;8.778;2023-12-29T02:09:28;100386.69;;;19.75;49.95
84413;BME280;74611;53.106;8.778;2023-12-29T02:11:54;100372.28;;;19.75;49.82
84413;BME280;74611;53.106;8.778;2023-12-29T02:14:20;100372.28;;;19.75;49.88
84413;BME280;74611;53.106;8.778;2023-12-29T02:17:07;100377.72;;;19.75;49.60
84413;BME280;74611;53.106;8.778;2023-12-29T02:19:41;100368.16;;;19.72;49.55
84413;BME280;74611;53.106;8.778;2023-12-29T02:22:10;100379.59;;;19.74;49.69
84413;BME280;74611;53.106;8.778;2023-12-29T02:24:35;100365.19;;;19.74;49.57
84413;BME280;74611;53.106;8.778;2023-12-29T02:27:23;100360.56;;;19.74;49.71
84413;BME280;74611;53.106;8.778;2023-12-29T02:30:08;100358.34;;;19.71;49.71
84413;BME280;74611;53.106;8.778;2023-12-29T02:32:36;100352.63;;;19.73;49.85
84413;BME280;74611;53.106;8.778;2023-12-29T02:35:04;100351.00;;;19.72;49.46
84413;BME280;74611;53.106;8.778;2023-12-29T02:37:34;100351.84;;;19.72;49.69
84413;BME280;74611;53.106;8.778;2023-12-29T02:40:01;100357.28;;;19.72;49.62
84413;BME280;74611;53.106;8.778;2023-12-29T02:42:26;100347.47;;;19.71;49.54
84413;BME280;74611;53.106;8.778;2023-12-29T02:44:52;100334.69;;;19.72;49.79
84413;BME280;74611;53.106;8.778;2023-12-29T02:47:17;100331.16;;;19.71;49.70
84413;BME280;74611;53.106;8.778;2023-12-29T02:49:44;100315.09;;;19.70;49.95
84413;BME280;74611;53.106;8.778;2023-12-29T02:52:10;100316.72;;;19.71;49.70
84413;BME280;74611;53.106;8.778;2023-12-29T02:54:35;100314.00;;;19.71;49.63
84413;BME280;74611;53.106;8.778;2023-12-29T02:57:01;100292.22;;;19.71;49.71
84413;BME280;74611;53.106;8.778;2023-12-29T02:59:26;100300.38;;;19.71;49.82
84413;BME280;74611;53.106;8.778;2023-12-29T03:01:52;100286.00;;;19.70;49.82
84413;BME280;74611;53.106;8.778;2023-12-29T03:04:17;100277.00;;;19.70;50.00
84413;BME280;74611;53.106;8.778;2023-12-29T03:06:43;100277.00;;;19.70;49.79
84413;BME280;74611;53.106;8.778;2023-12-29T03:09:08;100282.72;;;19.68;49.80
84413;BME280;74611;53.106;8.778;2023-12-29T03:11:33;100294.38;;;19.69;49.76
84413;BME280;74611;53.106;8.778;2023-12-29T03:13:59;100304.47;;;19.68;49.69
84413;BME280;74611;53.106;8.778;2023-12-29T03:16:24;100297.94;;;19.69;49.70
84413;BME280;74611;53.106;8.778;2023-12-29T03:18:49;100283.50;;;19.69;49.82
84413;BME280;74611;53.106;8.778;2023-12-29T03:21:15;100276.44;;;19.68;49.67
84413;BME280;74611;53.106;8.778;2023-12-29T03:23:40;100271.84;;;19.68;49.61
84413;BME280;74611;53.106;8.778;2023-12-29T03:26:06;100273.72;;;19.68;49.74
84413;BME280;74611;53.106;8.778;2023-12-29T03:28:31;100290.28;;;19.66;49.65
84413;BME280;74611;53.106;8.778;2023-12-29T03:30:56;100294.66;;;19.67;49.92
84413;BME280;74611;53.106;8.778;2023-12-29T03:33:22;100275.63;;;19.67;49.77
84413;BME280;74611;53.106;8.778;2023-12-29T03:35:47;100270.44;;;19.66;49.75
84413;BME280;74611;53.106;8.778;2023-12-29T03:38:13;100276.69;;;19.66;49.81
84413;BME280;74611;53.106;8.778;2023-12-29T03:40:39;100278.59;;;19.66;49.90
84413;BME280;74611;53.106;8.778;2023-12-29T03:43:05;100359.38;;;19.65;49.95
84413;BME280;74611;53.106;8.778;2023-12-29T03:45:30;100397.19;;;19.67;49.93
84413;BME280;74611;53.106;8.778;2023-12-29T03:47:55;100386.56;;;19.65;49.76
84413;BME280;74611;53.106;8.778;2023-12-29T03:50:21;100389.28;;;19.65;50.00
84413;BME280;74611;53.106;8.778;2023-12-29T03:52:47;100369.44;;;19.65;49.82
84413;BME280;74611;53.106;8.778;2023-12-29T03:55:12;100334.06;;;19.65;49.78
84413;BME280;74611;53.106;8.778;2023-12-29T03:57:38;100343.56;;;19.62;49.83
84413;BME280;74611;53.106;8.778;2023-12-29T04:00:04;100342.50;;;19.63;49.71
84413;BME280;74611;53.106;8.778;2023-12-29T04:02:31;100345.22;;;19.63;49.88
84413;BME280;74611;53.106;8.778;2023-12-29T04:04:56;100307.13;;;19.63;49.76
84413;BME280;74611;53.106;8.778;2023-12-29T04:07:22;100320.72;;;19.63;49.97
84413;BME280;74611;53.106;8.778;2023-12-29T04:09:48;100317.19;;;19.63;49.74
84413;BME280;74611;53.106;8.778;2023-12-29T04:12:13;100328.31;;;19.61;49.72
84413;BME280;74611;53.106;8.778;2023-12-29T04:14:38;100293.78;;;19.62;49.81
84413;BME280;74611;53.106;8.778;2023-12-29T04:17:04;100312.00;;;19.61;49.76
84413;BME280;74611;53.106;8.778;2023-12-29T04:19:39;100308.47;;;19.61;49.88
84413;BME280;74611;53.106;8.778;2023-12-29T04:22:04;100284.81;;;19.61;49.85
84413;BME280;74611;53.106;8.778;2023-12-29T04:24:29;100283.16;;;19.60;49.80
84413;BME280;74611;53.106;8.778;2023-12-29T04:26:55;100303.03;;;19.61;49.64
84413;BME280;74611;53.106;8.778;2023-12-29T04:29:21;100294.88;;;19.61;49.85
84413;BME280;74611;53.106;8.778;2023-12-29T04:31:46;100295.94;;;19.60;49.86
84413;BME280;74611;53.106;8.778;2023-12-29T04:34:11;100287.75;;;19.60;49.81
84413;BME280;74611;53.106;8.778;2023-12-29T04:36:37;100297.84;;;19.59;49.87
84413;BME280;74611;53.106;8.778;2023-12-29T04:39:02;100293.47;;;19.58;49.70
84413;BME280;74611;53.106;8.778;2023-12-29T04:41:27;100299.47;;;19.60;49.79
84413;BME280;74611;53.106;8.778;2023-12-29T04:43:53;100292.41;;;19.59;49.77
84413;BME280;74611;53.106;8.778;2023-12-29T04:46:18;100307.06;;;19.58;49.83
84413;BME280;74611;53.106;8.778;2023-12-29T04:48:44;100288.84;;;19.59;50.02
84413;BME280;74611;53.106;8.778;2023-12-29T04:51:09;100297.03;;;19.59;49.85
84413;BME280;74611;53.106;8.778;2023-12-29T04:53:35;100292.63;;;19.58;49.67
84413;BME280;74611;53.106;8.778;2023-12-29T04:56:00;100297.28;;;19.57;49.84
84413;BME280;74611;53.106;8.778;2023-12-29T04:58:26;100289.94;;;19.58;49.67
84413;BME280;74611;53.106;8.778;2023-12-29T05:00:51;100286.41;;;19.57;49.83
84413;BME280;74611;53.106;8.778;2023-12-29T05:03:17;100294.56;;;19.57;49.98
84413;BME280;74611;53.106;8.778;2023-12-29T05:05:42;100297.28;;;19.57;49.65
84413;BME280;74611;53.106;8.778;2023-12-29T05:08:08;100299.19;;;19.57;49.81
84413;BME280;74611;53.106;8.778;2023-12-29T05:10:33;100307.34;;;19.57;49.80
84413;BME280;74611;53.106;8.778;2023-12-29T05:13:00;100297.53;;;19.55;49.84
84413;BME280;74611;53.106;8.778;2023-12-29T05:15:25;100280.41;;;19.55;49.87
84413;BME280;74611;53.106;8.778;2023-12-29T05:17:51;100293.16;;;19.54;49.78
84413;BME280;74611;53.106;8.778;2023-12-29T05:20:17;100286.63;;;19.55;49.95
84413;BME280;74611;53.106;8.778;2023-12-29T05:22:42;100294.00;;;19.55;49.86
84413;BME280;74611;53.106;8.778;2023-12-29T05:25:08;100294.00;;;19.55;49.81
84413;BME280;74611;53.106;8.778;2023-12-29T05:27:33;100301.34;;;19.54;49.83
84413;BME280;74611;53.106;8.778;2023-12-29T05:29:58;100292.34;;;19.54;49.74
84413;BME280;74611;53.106;8.778;2023-12-29T05:32:24;100276.03;;;19.54;49.71
84413;BME280;74611;53.106;8.778;2023-12-29T05:34:49;100281.47;;;19.54;49.88
84413;BME280;74611;53.106;8.778;2023-12-29T05:37:14;100286.06;;;19.53;49.73
84413;BME280;74611;53.106;8.778;2023-12-29T05:39:43;100294.25;;;19.53;49.92
84413;BME280;74611;53.106;8.778;2023-12-29T05:42:08;100288.81;;;19.53;49.85
84413;BME280;74611;53.106;8.778;2023-12-29T05:44:37;100301.84;;;19.51;50.11
84413;BME280;74611;53.106;8.778;2023-12-29T05:47:03;100296.41;;;19.51;49.90
84413;BME280;74611;53.106;8.778;2023-12-29T05:49:29;100303.50;;;19.52;49.91
84413;BME280;74611;53.106;8.778;2023-12-29T05:51:55;100333.41;;;19.52;49.96
84413;BME280;74611;53.106;8.778;2023-12-29T05:54:21;100327.13;;;19.52;50.08
84413;BME280;74611;53.106;8.778;2023-12-29T05:56:46;100323.31;;;19.53;49.97
84413;BME280;74611;53.106;8.778;2023-12-29T05:59:11;100327.13;;;19.52;49.62
84413;BME280;74611;53.106;8.778;2023-12-29T06:01:37;100322.53;;;19.52;49.84
84413;BME280;74611;53.106;8.778;2023-12-29T06:04:02;100334.47;;;19.51;49.97
84413;BME280;74611;53.106;8.778;2023-12-29T06:06:28;100333.41;;;19.52;49.74
84413;BME280;74611;53.106;8.778;2023-12-29T06:08:54;100335.28;;;19.52;49.82
84413;BME280;74611;53.106;8.778;2023-12-29T06:11:19;100354.34;;;19.52;49.86
84413;BME280;74611;53.106;8.778;2023-12-29T06:13:46;100362.41;;;19.47;50.03
84413;BME280;74611;53.106;8.778;2023-12-29T06:16:18;100364.53;;;19.40;49.90
84413;BME280;74611;53.106;8.778;2023-12-29T06:18:43;100368.56;;;19.37;48.88
84413;BME280;74611;53.106;8.778;2023-12-29T06:21:08;100363.38;;;19.36;48.59
84413;BME280;74611;53.106;8.778;2023-12-29T06:23:34;100371.03;;;19.39;49.26
84413;BME280;74611;53.106;8.778;2023-12-29T06:25:59;100342.53;;;19.41;49.34
84413;BME280;74611;53.106;8.778;2023-12-29T06:28:25;100335.75;;;19.44;49.06
84413;BME280;74611;53.106;8.778;2023-12-29T06:30:50;100334.16;;;19.48;49.26
84413;BME280;74611;53.106;8.778;2023-12-29T06:33:15;100335.16;;;19.64;50.44
84413;BME280;74611;53.106;8.778;2023-12-29T06:35:41;100334.75;;;19.77;51.18
84413;BME280;74611;53.106;8.778;2023-12-29T06:38:07;100337.47;;;19.77;50.09
84413;BME280;74611;53.106;8.778;2023-12-29T06:40:32;100329.31;;;19.77;50.22
84413;BME280;74611;53.106;8.778;2023-12-29T06:42:57;100338.59;;;19.81;50.73
84413;BME280;74611;53.106;8.778;2023-12-29T06:45:23;100333.72;;;19.83;50.41
84413;BME280;74611;53.106;8.778;2023-12-29T06:47:48;100332.38;;;19.85;50.52
84413;BME280;74611;53.106;8.778;2023-12-29T06:50:14;100338.13;;;19.89;51.07
84413;BME280;74611;53.106;8.778;2023-12-29T06:52:40;100337.44;;;20.03;50.31
84413;BME280;74611;53.106;8.778;2023-12-29T06:55:06;100337.44;;;20.03;50.25
84413;BME280;74611;53.106;8.778;2023-12-29T06:57:32;100348.88;;;20.05;50.33
84413;BME280;74611;53.106;8.778;2023-12-29T06:59:57;100351.16;;;20.13;49.96
84413;BME280;74611;53.106;8.778;2023-12-29T07:02:22;100334.56;;;20.15;49.96
84413;BME280;74611;53.106;8.778;2023-12-29T07:04:48;100347.97;;;20.21;50.03
84413;BME280;74611;53.106;8.778;2023-12-29T07:07:13;100335.59;;;20.41;50.42
84413;BME280;74611;53.106;8.778;2023-12-29T07:09:39;100346.50;;;20.41;50.93
84413;BME280;74611;53.106;8.778;2023-12-29T07:12:07;100341.03;;;20.36;51.53
84413;BME280;74611;53.106;8.778;2023-12-29T07:14:33;100345.88;;;20.34;51.14
84413;BME280;74611;53.106;8.778;2023-12-29T07:17:00;100354.88;;;20.34;51.02
84413;BME280;74611;53.106;8.778;2023-12-29T07:19:26;100346.69;;;20.29;51.33
84413;BME280;74611;53.106;8.778;2023-12-29T07:21:52;100340.09;;;20.25;51.39
84413;BME280;74611;53.106;8.778;2023-12-29T07:24:18;100365.97;;;20.22;51.44
84413;BME280;74611;53.106;8.778;2023-12-29T07:26:43;100358.88;;;20.21;51.43
84413;BME280;74611;53.106;8.778;2023-12-29T07:29:09;100352.84;;;20.19;51.22
84413;BME280;74611;53.106;8.778;2023-12-29T07:31:38;100359.09;;;20.20;51.26
84413;BME280;74611;53.106;8.778;2023-12-29T07:34:03;100365.06;;;20.17;51.71
84413;BME280;74611;53.106;8.778;2023-12-29T07:36:29;100334.28;;;20.16;51.38
84413;BME280;74611;53.106;8.778;2023-12-29T07:38:54;100336.44;;;20.14;51.63
84413;BME280;74611;53.106;8.778;2023-12-29T07:41:20;100331.28;;;20.13;51.32
84413;BME280;74611;53.106;8.778;2023-12-29T07:43:45;100341.03;;;20.09;51.86
84413;BME280;74611;53.106;8.778;2023-12-29T07:46:10;100338.56;;;20.07;52.04
84413;BME280;74611;53.106;8.778;2023-12-29T07:48:36;100339.66;;;20.06;52.50
84413;BME280;74611;53.106;8.778;2023-12-29T07:51:05;100353.53;;;20.05;52.18
84413;BME280;74611;53.106;8.778;2023-12-29T07:53:30;100346.69;;;20.02;53.10
84413;BME280;74611;53.106;8.778;2023-12-29T07:55:56;100339.59;;;20.01;53.27
84413;BME280;74611;53.106;8.778;2023-12-29T07:58:21;100335.50;;;19.99;52.69
84413;BME280;74611;53.106;8.778;2023-12-29T08:00:47;100329.75;;;19.95;52.68
84413;BME280;74611;53.106;8.778;2023-12-29T08:03:12;100321.84;;;19.94;52.71
84413;BME280;74611;53.106;8.778;2023-12-29T08:05:38;100330.25;;;19.92;52.44
84413;BME280;74611;53.106;8.778;2023-12-29T08:08:04;100334.91;;;19.92;52.41
84413;BME280;74611;53.106;8.778;2023-12-29T08:10:29;100329.69;;;19.90;52.56
84413;BME280;74611;53.106;8.778;2023-12-29T08:12:56;100349.84;;;19.89;52.15
84413;BME280;74611;53.106;8.778;2023-12-29T08:15:22;100335.13;;;19.90;52.12
84413;BME280;74611;53.106;8.778;2023-12-29T08:17:47;100340.84;;;19.89;51.41
84413;BME280;74611;53.106;8.778;2023-12-29T08:20:13;100362.34;;;19.90;52.11
84413;BME280;74611;53.106;8.778;2023-12-29T08:22:38;100359.38;;;19.92;52.35
84413;BME280;74611;53.106;8.778;2023-12-29T08:25:04;100338.94;;;19.89;52.29
84413;BME280;74611;53.106;8.778;2023-12-29T08:27:29;100346.28;;;19.89;52.37
84413;BME280;74611;53.106;8.778;2023-12-29T08:29:54;100347.94;;;19.90;52.18
84413;BME280;74611;53.106;8.778;2023-12-29T08:32:20;100337.34;;;19.93;51.98
84413;BME280;74611;53.106;8.778;2023-12-29T08:34:46;100337.91;;;19.95;52.00
84413;BME280;74611;53.106;8.778;2023-12-29T08:37:11;100338.81;;;20.01;52.06
84413;BME280;74611;53.106;8.778;2023-12-29T08:39:37;100337.19;;;20.05;51.87
84413;BME280;74611;53.106;8.778;2023-12-29T08:42:02;100327.66;;;20.07;52.01
84413;BME280;74611;53.106;8.778;2023-12-29T08:44:28;100342.66;;;20.10;51.84
84413;BME280;74611;53.106;8.778;2023-12-29T08:46:53;100343.00;;;20.13;51.64
84413;BME280;74611;53.106;8.778;2023-12-29T08:49:19;100343.78;;;20.14;51.28
84413;BME280;74611;53.106;8.778;2023-12-29T08:51:45;100352.78;;;20.14;51.30
84413;BME280;74611;53.106;8.778;2023-12-29T08:54:10;100365.88;;;20.17;51.46
84413;BME280;74611;53.106;8.778;2023-12-29T08:56:35;100349.56;;;20.17;51.12
84413;BME280;74611;53.106;8.778;2023-12-29T08:59:01;100363.16;;;20.17;51.14
84413;BME280;74611;53.106;8.778;2023-12-29T09:01:26;100357.72;;;20.17;51.34
84413;BME280;74611;53.106;8.778;2023-12-29T09:03:52;100373.56;;;20.20;50.98
84413;BME280;74611;53.106;8.778;2023-12-29T09:06:18;100361.31;;;20.23;50.79
84413;BME280;74611;53.106;8.778;2023-12-29T09:08:43;100356.72;;;20.23;51.01
84413;BME280;74611;53.106;8.778;2023-12-29T09:11:09;100352.91;;;20.24;50.85
84413;BME280;74611;53.106;8.778;2023-12-29T09:13:34;100349.63;;;20.22;50.90
84413;BME280;74611;53.106;8.778;2023-12-29T09:16:00;100371.34;;;20.17;51.08
84413;BME280;74611;53.106;8.778;2023-12-29T09:18:25;100373.50;;;20.15;50.91
84413;BME280;74611;53.106;8.778;2023-12-29T09:20:51;100381.91;;;20.14;50.82
84413;BME280;74611;53.106;8.778;2023-12-29T09:23:16;100392.78;;;20.14;50.76
84413;BME280;74611;53.106;8.778;2023-12-29T09:25:42;100382.72;;;20.14;50.75
84413;BME280;74611;53.106;8.778;2023-12-29T09:28:07;100381.41;;;20.17;50.96
84413;BME280;74611;53.106;8.778;2023-12-29T09:30:33;100388.50;;;20.18;51.16
84413;BME280;74611;53.106;8.778;2023-12-29T09:32:58;100379.81;;;20.21;50.93
84413;BME280;74611;53.106;8.778;2023-12-29T09:35:24;100375.25;;;20.26;50.87
84413;BME280;74611;53.106;8.778;2023-12-29T09:37:49;100378.53;;;20.28;51.15
84413;BME280;74611;53.106;8.778;2023-12-29T09:40:15;100372.56;;;20.32;50.68
84413;BME280;74611;53.106;8.778;2023-12-29T09:42:43;100367.38;;;20.30;51.14
84413;BME280;74611;53.106;8.778;2023-12-29T09:45:13;100368.47;;;20.29;51.23
84413;BME280;74611;53.106;8.778;2023-12-29T09:47:41;100373.09;;;20.28;50.96
84413;BME280;74611;53.106;8.778;2023-12-29T09:50:09;100374.16;;;20.27;51.35
84413;BME280;74611;53.106;8.778;2023-12-29T09:52:40;100365.97;;;20.22;51.54
84413;BME280;74611;53.106;8.778;2023-12-29T09:55:09;100360.75;;;20.21;51.44
84413;BME280;74611;53.106;8.778;2023-12-29T09:57:38;100358.56;;;20.18;51.46
84413;BME280;74611;53.106;8.778;2023-12-29T10:00:04;100365.34;;;20.15;51.31
84413;BME280;74611;53.106;8.778;2023-12-29T10:02:31;100360.13;;;20.14;51.29
84413;BME280;74611;53.106;8.778;2023-12-29T10:04:56;100359.88;;;20.15;51.51
84413;BME280;74611;53.106;8.778;2023-12-29T10:07:25;100363.16;;;20.17;51.44
84413;BME280;74611;53.106;8.778;2023-12-29T10:09:55;100366.25;;;20.26;51.04
84413;BME280;74611;53.106;8.778;2023-12-29T10:12:22;100354.03;;;20.28;50.87
84413;BME280;74611;53.106;8.778;2023-12-29T10:20:23;100355.53;;;20.46;50.85
84413;BME280;74611;53.106;8.778;2023-12-29T10:25:32;100369.19;;;20.51;50.55
84413;BME280;74611;53.106;8.778;2023-12-29T10:27:58;100372.47;;;20.53;51.04
84413;BME280;74611;53.106;8.778;2023-12-29T10:30:23;100377.69;;;20.55;50.70
84413;BME280;74611;53.106;8.778;2023-12-29T10:32:52;100368.66;;;20.54;50.81
84413;BME280;74611;53.106;8.778;2023-12-29T10:35:18;100371.41;;;20.54;50.88
84413;BME280;74611;53.106;8.778;2023-12-29T10:37:43;100371.41;;;20.54;51.44
84413;BME280;74611;53.106;8.778;2023-12-29T10:40:09;100376.84;;;20.54;50.92
84413;BME280;74611;53.106;8.778;2023-12-29T10:42:54;100354.28;;;20.59;51.25
84413;BME280;74611;53.106;8.778;2023-12-29T10:45:20;100350.44;;;20.60;51.10
84413;BME280;74611;53.106;8.778;2023-12-29T10:47:45;100350.44;;;20.60;51.19
84413;BME280;74611;53.106;8.778;2023-12-29T10:50:11;100340.66;;;20.59;50.82
84413;BME280;74611;53.106;8.778;2023-12-29T10:52:36;100338.44;;;20.56;51.33
84413;BME280;74611;53.106;8.778;2023-12-29T10:55:07;100346.31;;;20.52;51.50
84413;BME280;74611;53.106;8.778;2023-12-29T10:57:33;100332.47;;;20.59;51.00
84413;BME280;74611;53.106;8.778;2023-12-29T10:59:59;100328.66;;;20.60;51.05
84413;BME280;74611;53.106;8.778;2023-12-29T11:02:28;100342.31;;;20.65;50.58
84413;BME280;74611;53.106;8.778;2023-12-29T11:05:07;100368.00;;;20.74;50.18
84413;BME280;74611;53.106;8.778;2023-12-29T11:10:06;100355.19;;;20.74;50.12
84413;BME280;74611;53.106;8.778;2023-12-29T11:12:32;100357.38;;;20.77;50.45
84413;BME280;74611;53.106;8.778;2023-12-29T11:15:00;100351.13;;;20.77;49.86
84413;BME280;74611;53.106;8.778;2023-12-29T11:17:29;100343.75;;;20.77;50.04
84413;BME280;74611;53.106;8.778;2023-12-29T11:19:55;100355.19;;;20.74;49.62
84413;BME280;74611;53.106;8.778;2023-12-29T11:22:21;100353.53;;;20.73;49.66
84413;BME280;74611;53.106;8.778;2023-12-29T11:24:48;100350.31;;;20.76;49.42
84413;BME280;74611;53.106;8.778;2023-12-29T11:27:13;100350.53;;;20.75;49.48
84413;BME280;74611;53.106;8.778;2023-12-29T11:29:41;100336.91;;;20.75;49.49
84413;BME280;74611;53.106;8.778;2023-12-29T11:32:11;100334.25;;;20.80;49.43
84413;BME280;74611;53.106;8.778;2023-12-29T11:34:42;100339.44;;;20.86;49.56
84413;BME280;74611;53.106;8.778;2023-12-29T11:37:21;100332.38;;;20.90;49.25
84413;BME280;74611;53.106;8.778;2023-12-29T11:40:14;100323.69;;;20.93;49.65
84413;BME280;74611;53.106;8.778;2023-12-29T11:42:44;100332.69;;;20.99;49.77
84413;BME280;74611;53.106;8.778;2023-12-29T11:47:51;100314.78;;;21.03;49.61
84413;BME280;74611;53.106;8.778;2023-12-29T11:50:35;100325.16;;;21.06;49.53
84413;BME280;74611;53.106;8.778;2023-12-29T11:53:08;100315.63;;;21.09;49.64
84413;BME280;74611;53.106;8.778;2023-12-29T11:55:34;100315.34;;;21.05;49.22
84413;BME280;74611;53.106;8.778;2023-12-29T11:58:00;100307.16;;;21.10;49.02
84413;BME280;74611;53.106;8.778;2023-12-29T12:00:45;100310.44;;;21.07;50.10
84413;BME280;74611;53.106;8.778;2023-12-29T12:03:30;100318.38;;;21.14;51.17
84413;BME280;74611;53.106;8.778;2023-12-29T12:05:58;100309.66;;;21.12;50.17
84413;BME280;74611;53.106;8.778;2023-12-29T12:13:55;100313.75;;;21.19;50.68
84413;BME280;74611;53.106;8.778;2023-12-29T12:19:05;100320.78;;;21.10;51.58
84413;BME280;74611;53.106;8.778;2023-12-29T12:21:31;100318.00;;;21.00;49.33
84413;BME280;74611;53.106;8.778;2023-12-29T12:23:57;100306.75;;;20.86;47.41
84413;BME280;74611;53.106;8.778;2023-12-29T12:26:25;100306.16;;;20.79;45.68
84413;BME280;74611;53.106;8.778;2023-12-29T12:28:54;100306.19;;;20.84;45.60
84413;BME280;74611;53.106;8.778;2023-12-29T12:31:20;100299.13;;;20.88;45.69
84413;BME280;74611;53.106;8.778;2023-12-29T12:33:57;100308.44;;;20.97;45.82
84413;BME280;74611;53.106;8.778;2023-12-29T12:36:23;100331.63;;;21.00;45.48
84413;BME280;74611;53.106;8.778;2023-12-29T12:38:54;100336.59;;;21.08;45.76
84413;BME280;74611;53.106;8.778;2023-12-29T12:41:20;100316.69;;;21.08;45.95
84413;BME280;74611;53.106;8.778;2023-12-29T12:43:53;100333.63;;;21.15;45.77
84413;BME280;74611;53.106;8.778;2023-12-29T12:46:23;100336.09;;;21.11;46.61
84413;BME280;74611;53.106;8.778;2023-12-29T12:48:52;100342.38;;;21.17;46.40
84413;BME280;74611;53.106;8.778;2023-12-29T12:51:20;100341.28;;;21.18;46.63
84413;BME280;74611;53.106;8.778;2023-12-29T12:53:46;100341.84;;;21.20;47.00
84413;BME280;74611;53.106;8.778;2023-12-29T12:56:16;100341.00;;;21.19;46.86
84413;BME280;74611;53.106;8.778;2023-12-29T12:58:42;100356.31;;;21.20;47.00
84413;BME280;74611;53.106;8.778;2023-12-29T13:01:08;100332.00;;;21.19;47.23
84413;BME280;74611;53.106;8.778;2023-12-29T13:03:34;100344.56;;;21.20;47.24
84413;BME280;74611;53.106;8.778;2023-12-29T13:06:02;100339.16;;;21.25;47.09
84413;BME280;74611;53.106;8.778;2023-12-29T13:08:30;100339.94;;;21.20;47.22